Time;durP1;ratioP1;P1;durP2;ratioP2;P2;SDS_P1;SDS_P2;PMS_P1;PMS_P2;Temp;Humidity;BMP_temperature;BMP_pressure;BME280_temperature;BME280_humidity;BME280_pressure;Samples;Min_cycle;Max_cycle;Signal;HPM_P1;HPM_P2
2023/02/21 02:15:08;;;;;;;;;;;;;;;;;;5050538;28;1865;-44
2023/02/21 02:17:52;;;;;;;;;;;;;;;;;;5052077;28;1221;-43
2023/02/21 02:20:38;;;;;;;;;;;;;;;;;;5051925;28;2085;-47
2023/02/21 02:23:21;;;;;;;;;;;;;;;;;;5052014;28;1725;-44
2023/02/21 02:25:51;;;;;;;;;;;;;;;;;;5051712;28;1662;-40
2023/02/21 02:28:38;;;;;;;;;;;;;;;;;;5051805;28;1156;-39
2023/02/21 02:31:25;;;;;;;;;;;;;;;;;;5043513;28;1884;-42
2023/02/21 02:34:13;;;;;;;;;;;;;;;;;;5051787;28;1454;-44
2023/02/21 02:36:43;;;;;;;;;;;;;;;;;;5051741;28;1663;-48
2023/02/21 02:39:11;;;;;;;;;;;;;;;;;;5051466;28;1979;-45
2023/02/21 02:41:57;;;;;;;;;;;;;;;;;;5051765;28;2007;-44
2023/02/21 02:44:28;;;;;;;;;;;;;;;;;;5050121;28;1679;-44
2023/02/21 02:46:59;;;;;;;;;;;;;;;;;;5050231;28;1403;-45
2023/02/21 02:49:28;;;;;;;;;;;;;;;;;;5050243;28;2140;-46
2023/02/21 02:52:01;;;;;;;;;;;;;;;;;;5051495;28;1840;-45
2023/02/21 02:54:29;;;;;;;;;;;;;;;;;;5049846;28;1656;-43
2023/02/21 02:56:57;;;;;;;;;;;;;;;;;;5049928;28;2285;-45
2023/02/21 02:59:26;;;;;;;;;;;;;;;;;;5057784;28;2035;-45
2023/02/21 03:02:18;;;;;;;;;;;;;;;;;;5069906;28;1611;-47
2023/02/21 03:04:51;;;;;;;;;;;;;;;;;;5039106;28;1311;-47
2023/02/21 03:07:40;;;;;;;;;;;;;;;;;;5050044;28;1549;-43
2023/02/21 03:10:13;;;;;;;;;;;;;;;;;;5033635;28;2524;-44
2023/02/21 03:12:44;;;;;;;;;;;;;;;;;;5049930;28;1879;-47
2023/02/21 03:15:16;;;;;;;;;;;;;;;;;;5051123;28;2022;-44
2023/02/21 03:17:53;;;;;;;;;;;;;;;;;;5051233;28;1611;-46
2023/02/21 03:20:21;;;;;;;;;;;;;;;;;;5051190;28;1904;-44
2023/02/21 03:22:49;;;;;;;;;;;;;;;;;;5051327;28;1432;-42
2023/02/21 03:25:17;;;;;;;;;;;;;;;;;;5049893;28;2167;-46
2023/02/21 03:27:46;;;;;;;;;;;;;;;;;;5049996;28;1934;-44
2023/02/21 03:30:23;;;;;;;;;;;;;;;;;;5049568;28;1915;-43
2023/02/21 03:32:52;;;;;;;;;;;;;;;;;;5049667;28;1374;-44
2023/02/21 03:35:22;;;;;;;;;;;;;;;;;;5049536;28;2004;-46
2023/02/21 03:37:53;;;;;;;;;;;;;;;;;;5049841;28;2087;-42
2023/02/21 03:40:28;;;;;;;;;;;;;;;;;;5049569;28;1563;-43
2023/02/21 03:42:58;;;;;;;;;;;;;;;;;;5049299;28;1245;-45
2023/02/21 03:45:28;;;;;;;;;;;;;;;;;;5049595;28;2087;-42
2023/02/21 03:48:05;;;;;;;;;;;;;;;;;;5049609;28;2014;-47
2023/02/21 03:50:34;;;;;;;;;;;;;;;;;;5049478;28;2028;-46
2023/02/21 03:53:01;;;;;;;;;;;;;;;;;;5049653;28;1666;-48
2023/02/21 03:55:30;;;;;;;;;;;;;;;;;;5049428;28;1636;-44
2023/02/21 03:57:59;;;;;;;;;;;;;;;;;;5049332;28;1675;-44
2023/02/21 04:00:30;;;;;;;;;;;;;;;;;;5049412;28;1404;-44
2023/02/21 04:02:57;;;;;;;;;;;;;;;;;;5050593;28;1818;-42
2023/02/21 04:05:46;;;;;;;;;;;;;;;;;;5049263;28;1302;-44
2023/02/21 04:08:14;;;;;;;;;;;;;;;;;;5052127;28;1369;-43
2023/02/21 04:10:41;;;;;;;;;;;;;;;;;;5053155;28;1971;-46
2023/02/21 04:13:19;;;;;;;;;;;;;;;;;;5053314;28;2102;-47
2023/02/21 04:15:47;;;;;;;;;;;;;;;;;;5053454;28;1625;-45
2023/02/21 04:18:15;;;;;;;;;;;;;;;;;;5052879;28;1722;-45
2023/02/21 04:20:45;;;;;;;;;;;;;;;;;;5053076;28;1990;-42
2023/02/21 04:23:19;;;;;;;;;;;;;;;;;;5053170;28;2187;-45
2023/02/21 04:25:46;;;;;;;;;;;;;;;;;;5058206;28;2053;-45
2023/02/21 04:28:21;;;;;;;;;;;;;;;;;;5089742;28;1671;-39
2023/02/21 04:30:49;;;;;;;;;;;;;;;;;;5072846;28;1969;-43
2023/02/21 04:33:16;;;;;;;;;;;;;;;;;;5074221;28;1359;-45
2023/02/21 04:35:44;;;;;;;;;;;;;;;;;;5089231;28;1711;-41
2023/02/21 04:38:20;;;;;;;;;;;;;;;;;;5063023;28;1836;-44
2023/02/21 04:40:48;;;;;;;;;;;;;;;;;;5074087;28;1686;-46
2023/02/21 04:43:17;;;;;;;;;;;;;;;;;;5055934;28;1654;-44
2023/02/21 04:45:44;;;;;;;;;;;;;;;;;;5073752;28;1652;-41
2023/02/21 04:48:11;;;;;;;;;;;;;;;;;;5073953;28;2052;-47
2023/02/21 04:50:38;;;;;;;;;;;;;;;;;;5073487;28;1911;-45
2023/02/21 04:53:05;;;;;;;;;;;;;;;;;;5073770;28;2124;-46
2023/02/21 04:55:33;;;;;;;;;;;;;;;;;;5073735;28;1711;-45
2023/02/21 04:58:00;;;;;;;;;;;;;;;;;;5073436;28;1831;-48
2023/02/21 05:00:27;;;;;;;;;;;;;;;;;;5073527;28;1267;-45
2023/02/21 05:02:54;;;;;;;;;;;;;;;;;;5073289;28;1937;-43
2023/02/21 05:05:21;;;;;;;;;;;;;;;;;;5073589;28;1869;-47
2023/02/21 05:07:48;;;;;;;;;;;;;;;;;;5055932;28;1390;-44
2023/02/21 05:10:16;;;;;;;;;;;;;;;;;;5073379;28;1971;-44
2023/02/21 05:12:43;;;;;;;;;;;;;;;;;;5073293;28;1427;-49
2023/02/21 05:15:11;;;;;;;;;;;;;;;;;;5073250;28;2034;-52
2023/02/21 05:17:38;;;;;;;;;;;;;;;;;;5055270;28;2296;-44
2023/02/21 05:20:10;;;;;;;;;;;;;;;;;;5073220;28;1916;-49
2023/02/21 05:22:39;;;;;;;;;;;;;;;;;;5072498;28;2739;-46
2023/02/21 05:25:07;;;;;;;;;;;;;;;;;;5072978;28;1870;-50
2023/02/21 05:27:34;;;;;;;;;;;;;;;;;;5073026;28;2188;-46
2023/02/21 05:30:01;;;;;;;;;;;;;;;;;;5072957;28;1909;-45
2023/02/21 05:32:28;;;;;;;;;;;;;;;;;;5072865;28;1534;-45
2023/02/21 05:34:56;;;;;;;;;;;;;;;;;;5072717;28;1600;-44
2023/02/21 05:37:23;;;;;;;;;;;;;;;;;;5072982;28;1911;-47
2023/02/21 05:39:50;;;;;;;;;;;;;;;;;;5072586;28;1261;-40
2023/02/21 05:42:17;;;;;;;;;;;;;;;;;;5072913;28;1367;-47
2023/02/21 05:44:45;;;;;;;;;;;;;;;;;;5072640;28;2028;-44
2023/02/21 05:47:12;;;;;;;;;;;;;;;;;;5072549;28;1843;-45
2023/02/21 05:49:40;;;;;;;;;;;;;;;;;;5072519;28;1909;-44
2023/02/21 05:52:09;;;;;;;;;;;;;;;;;;5072230;28;1992;-46
2023/02/21 05:54:37;;;;;;;;;;;;;;;;;;5072509;28;1742;-44
2023/02/21 05:57:04;;;;;;;;;;;;;;;;;;5072278;28;1912;-42
2023/02/21 05:59:31;;;;;;;;;;;;;;;;;;5072495;28;1956;-48
2023/02/21 06:01:59;;;;;;;;;;;;;;;;;;5072400;28;1221;-45
2023/02/21 06:04:26;;;;;;;;;;;;;;;;;;5073340;28;1449;-44
2023/02/21 06:06:53;;;;;;;;;;;;;;;;;;5092812;28;1784;-41
2023/02/21 06:09:20;;;;;;;;;;;;;;;;;;5092158;28;1911;-41
2023/02/21 06:11:47;;;;;;;;;;;;;;;;;;5092617;28;2122;-43
2023/02/21 06:14:16;;;;;;;;;;;;;;;;;;5092662;28;1465;-42
2023/02/21 06:16:44;;;;;;;;;;;;;;;;;;5092288;28;1925;-43
2023/02/21 06:19:12;;;;;;;;;;;;;;;;;;5092234;28;2179;-43
2023/02/21 06:21:40;;;;;;;;;;;;;;;;;;5092227;28;1821;-39
2023/02/21 06:24:10;;;;;;;;;;;;;;;;;;5092320;28;1789;-40
2023/02/21 06:26:39;;;;;;;;;;;;;;;;;;5092141;28;1818;-46
2023/02/21 06:29:07;;;;;;;;;;;;;;;;;;5091814;28;1562;-44
2023/02/21 06:31:35;;;;;;;;;;;;;;;;;;5091663;28;1916;-45
2023/02/21 06:34:02;;;;;;;;;;;;;;;;;;5091716;28;1590;-49
2023/02/21 06:36:30;;;;;;;;;;;;;;;;;;5091834;28;1577;-49
2023/02/21 06:38:57;;;;;;;;;;;;;;;;;;5073784;28;1275;-46
2023/02/21 06:41:26;;;;;;;;;;;;;;;;;;5091943;28;1826;-48
2023/02/21 06:43:54;;;;;;;;;;;;;;;;;;5079284;28;1751;-47
2023/02/21 06:46:23;;;;;;;;;;;;;;;;;;5071272;28;1882;-47
2023/02/21 06:48:51;;;;;;;;;;;;;;;;;;5071471;28;948;-41
2023/02/21 06:51:18;;;;;;;;;;;;;;;;;;5071671;28;2032;-46
2023/02/21 06:53:49;;;;;;;;;;;;;;;;;;5053577;28;1905;-40
2023/02/21 06:56:16;;;;;;;;;;;;;;;;;;5071605;28;1741;-40
2023/02/21 06:58:43;;;;;;;;;;;;;;;;;;5070597;28;1780;-38
2023/02/21 07:01:10;;;;;;;;;;;;;;;;;;5071328;28;2333;-39
2023/02/21 07:03:39;;;;;;;;;;;;;;;;;;5071399;28;2132;-42
2023/02/21 07:06:06;;;;;;;;;;;;;;;;;;5077595;28;1548;-44
2023/02/21 07:08:33;;;;;;;;;;;;;;;;;;5071024;28;1712;-46
2023/02/21 07:11:00;;;;;;;;;;;;;;;;;;5070928;28;1903;-41
2023/02/21 07:13:27;;;;;;;;;;;;;;;;;;5070898;28;1911;-39
2023/02/21 07:15:55;;;;;;;;;;;;;;;;;;5070733;28;1811;-43
2023/02/21 07:18:22;;;;;;;;;;;;;;;;;;5070977;28;1542;-39
2023/02/21 07:20:49;;;;;;;;;;;;;;;;;;5072601;28;1987;-39
2023/02/21 07:23:16;;;;;;;;;;;;;;;;;;5091340;28;1513;-36
2023/02/21 07:25:43;;;;;;;;;;;;;;;;;;5090889;28;1786;-37
2023/02/21 07:28:11;;;;;;;;;;;;;;;;;;5090783;28;1905;-39
2023/02/21 07:30:40;;;;;;;;;;;;;;;;;;5090782;28;1977;-39
2023/02/21 07:33:07;;;;;;;;;;;;;;;;;;5090784;28;1565;-42
2023/02/21 07:35:35;;;;;;;;;;;;;;;;;;5090691;28;1761;-40
2023/02/21 07:38:02;;;;;;;;;;;;;;;;;;5090834;28;1919;-40
2023/02/21 07:40:29;;;;;;;;;;;;;;;;;;5090770;28;1790;-43
2023/02/21 07:42:56;;;;;;;;;;;;;;;;;;5093410;28;1698;-39
2023/02/21 07:45:23;;;;;;;;;;;;;;;;;;5095091;28;2187;-43
2023/02/21 07:47:52;;;;;;;;;;;;;;;;;;5095178;28;1595;-39
2023/02/21 07:50:19;;;;;;;;;;;;;;;;;;5094733;28;1910;-45
2023/02/21 07:52:46;;;;;;;;;;;;;;;;;;5095427;28;1474;-39
2023/02/21 07:55:13;;;;;;;;;;;;;;;;;;5093885;28;1535;-42
2023/02/21 07:57:40;;;;;;;;;;;;;;;;;;5081710;28;1913;-43
2023/02/21 08:00:08;;;;;;;;;;;;;;;;;;5074322;28;1838;-39
2023/02/21 08:02:47;;;;;;;;;;;;;;;;;;5073946;28;2202;-40
2023/02/21 08:05:15;;;;;;;;;;;;;;;;;;5081626;28;1537;-40
2023/02/21 08:07:42;;;;;;;;;;;;;;;;;;5094406;28;1967;-40
2023/02/21 08:10:10;;;;;;;;;;;;;;;;;;5094286;28;1973;-42
2023/02/21 08:12:37;;;;;;;;;;;;;;;;;;5094189;28;2176;-39
2023/02/21 08:15:05;;;;;;;;;;;;;;;;;;5093768;28;1608;-40
2023/02/21 08:17:32;;;;;;;;;;;;;;;;;;5093843;28;1859;-44
2023/02/21 08:19:59;;;;;;;;;;;;;;;;;;5092959;28;2052;-43
2023/02/21 08:22:26;;;;;;;;;;;;;;;;;;5075278;28;1634;-39
2023/02/21 08:24:56;;;;;;;;;;;;;;;;;;5092949;28;1724;-45
2023/02/21 08:27:23;;;;;;;;;;;;;;;;;;5093066;28;1859;-49
2023/02/21 08:29:51;;;;;;;;;;;;;;;;;;5084605;28;1983;-41
2023/02/21 08:32:18;;;;;;;;;;;;;;;;;;5072656;28;1592;-45
2023/02/21 08:34:47;;;;;;;;;;;;;;;;;;5053433;28;1770;-43
2023/02/21 08:37:18;;;;;;;;;;;;;;;;;;5071441;28;1842;-45
2023/02/21 08:39:46;;;;;;;;;;;;;;;;;;5070940;28;2083;-41
2023/02/21 08:42:14;;;;;;;;;;;;;;;;;;5071549;28;1478;-43
2023/02/21 08:44:43;;;;;;;;;;;;;;;;;;5071440;28;2105;-41
2023/02/21 08:47:12;;;;;;;;;;;;;;;;;;5071291;28;1709;-39
2023/02/21 08:49:43;;;;;;;;;;;;;;;;;;5071686;28;2194;-39
2023/02/21 08:52:11;;;;;;;;;;;;;;;;;;5071272;28;1913;-46
2023/02/21 08:54:38;;;;;;;;;;;;;;;;;;5071456;28;1529;-42
2023/02/21 08:57:05;;;;;;;;;;;;;;;;;;5071735;28;1805;-43
2023/02/21 08:59:33;;;;;;;;;;;;;;;;;;5071507;28;2265;-41
2023/02/21 09:02:01;;;;;;;;;;;;;;;;;;5071012;28;1857;-40
2023/02/21 09:04:28;;;;;;;;;;;;;;;;;;5072953;28;2240;-46
2023/02/21 09:06:55;;;;;;;;;;;;;;;;;;5073822;28;2437;-47
2023/02/21 09:09:22;;;;;;;;;;;;;;;;;;5091928;28;1796;-42
2023/02/21 09:11:49;;;;;;;;;;;;;;;;;;5078995;28;2103;-40
2023/02/21 09:14:16;;;;;;;;;;;;;;;;;;5072073;28;1822;-43
2023/02/21 09:16:45;;;;;;;;;;;;;;;;;;5071470;28;1432;-43
2023/02/21 09:19:13;;;;;;;;;;;;;;;;;;5071127;28;1983;-41
2023/02/21 09:21:44;;;;;;;;;;;;;;;;;;5070553;28;1706;-40
2023/02/21 09:24:11;;;;;;;;;;;;;;;;;;5071924;28;1649;-44
2023/02/21 09:26:39;;;;;;;;;;;;;;;;;;5070903;28;1801;-41
2023/02/21 09:29:06;;;;;;;;;;;;;;;;;;5071396;28;1997;-46
2023/02/21 09:31:33;;;;;;;;;;;;;;;;;;5071177;28;1912;-45
2023/02/21 09:34:00;;;;;;;;;;;;;;;;;;5071843;28;2055;-46
2023/02/21 09:36:28;;;;;;;;;;;;;;;;;;5072496;28;2349;-45
2023/02/21 09:38:55;;;;;;;;;;;;;;;;;;5071629;28;1952;-44
2023/02/21 09:41:24;;;;;;;;;;;;;;;;;;5071251;28;2526;-43
2023/02/21 09:43:53;;;;;;;;;;;;;;;;;;5071790;28;1901;-45
2023/02/21 09:46:40;;;;;;;;;;;;;;;;;;5071391;28;1953;-42
2023/02/21 09:49:24;;;;;;;;;;;;;;;;;;5071272;28;1861;-43
2023/02/21 09:51:52;;;;;;;;;;;;;;;;;;5071516;28;1924;-44
2023/02/21 09:54:39;;;;;;;;;;;;;;;;;;5071632;28;1824;-44
2023/02/21 09:57:10;;;;;;;;;;;;;;;;;;5071281;28;1731;-43
2023/02/21 09:59:37;;;;;;;;;;;;;;;;;;5071683;28;1995;-40
2023/02/21 10:02:14;;;;;;;;;;;;;;;;;;5071286;28;1996;-43
2023/02/21 10:04:51;;;;;;;;;;;;;;;;;;5073684;28;1824;-43
2023/02/21 10:07:23;;;;;;;;;;;;;;;;;;5091670;28;1586;-43
2023/02/21 10:09:56;;;;;;;;;;;;;;;;;;5091703;28;1514;-40
2023/02/21 10:12:23;;;;;;;;;;;;;;;;;;5091465;28;1934;-39
2023/02/21 10:15:11;;;;;;;;;;;;;;;;;;5091741;28;1718;-47
2023/02/21 10:17:45;;;;;;;;;;;;;;;;;;5091777;28;1734;-44
2023/02/21 10:20:18;;;;;;;;;;;;;;;;;;5091059;28;1940;-43
2023/02/21 10:22:47;;;;;;;;;;;;;;;;;;5053299;28;2470;-45
2023/02/21 10:25:20;;;;;;;;;;;;;;;;;;5070543;28;1797;-46
2023/02/21 10:27:48;;;;;;;;;;;;;;;;;;5070704;28;1695;-44
2023/02/21 10:30:30;;;;;;;;;;;;;;;;;;5071167;28;1960;-41
2023/02/21 10:32:57;;;;;;;;;;;;;;;;;;5071130;28;1857;-47
2023/02/21 10:35:24;;;;;;;;;;;;;;;;;;5073548;28;1695;-42
2023/02/21 10:37:52;;;;;;;;;;;;;;;;;;5052975;28;2003;-43
2023/02/21 10:40:38;;;;;;;;;;;;;;;;;;5070547;28;1772;-42
2023/02/21 10:43:20;;;;;;;;;;;;;;;;;;5070192;28;2028;-44
2023/02/21 10:45:53;;;;;;;;;;;;;;;;;;5069986;28;1984;-43
2023/02/21 10:48:23;;;;;;;;;;;;;;;;;;5070908;28;1864;-45
2023/02/21 10:50:52;;;;;;;;;;;;;;;;;;5070688;28;1900;-42
2023/02/21 10:53:24;;;;;;;;;;;;;;;;;;5070930;28;1978;-45
2023/02/21 10:56:10;;;;;;;;;;;;;;;;;;5070580;28;1427;-44
2023/02/21 10:58:38;;;;;;;;;;;;;;;;;;5052663;28;2064;-40
2023/02/21 11:01:13;;;;;;;;;;;;;;;;;;5070340;28;1544;-43
2023/02/21 11:03:44;;;;;;;;;;;;;;;;;;5070551;28;1609;-45
2023/02/21 11:06:23;;;;;;;;;;;;;;;;;;5069783;28;1802;-40
2023/02/21 11:08:53;;;;;;;;;;;;;;;;;;5070284;28;1862;-44
2023/02/21 11:11:34;;;;;;;;;;;;;;;;;;5070423;28;1908;-42
2023/02/21 11:14:23;;;;;;;;;;;;;;;;;;5070686;28;2055;-44
2023/02/21 11:17:08;;;;;;;;;;;;;;;;;;5070723;28;2085;-43
2023/02/21 11:19:44;;;;;;;;;;;;;;;;;;5070244;28;1833;-40
2023/02/21 11:22:11;;;;;;;;;;;;;;;;;;5069980;28;1691;-41
2023/02/21 11:24:47;;;;;;;;;;;;;;;;;;5069967;28;1516;-42
2023/02/21 11:27:15;;;;;;;;;;;;;;;;;;5070175;28;1935;-40
2023/02/21 11:29:44;;;;;;;;;;;;;;;;;;5069966;28;1966;-42
2023/02/21 11:32:15;;;;;;;;;;;;;;;;;;5069775;28;1999;-44
2023/02/21 11:34:47;;;;;;;;;;;;;;;;;;5069796;28;1747;-42
2023/02/21 11:37:15;;;;;;;;;;;;;;;;;;5069757;28;1837;-42
2023/02/21 11:39:49;;;;;;;;;;;;;;;;;;5070251;28;1390;-40
2023/02/21 11:42:42;;;;;;;;;;;;;;;;;;5069986;28;1754;-41
2023/02/21 11:45:13;;;;;;;;;;;;;;;;;;5087681;28;1475;-39
2023/02/21 11:47:51;;;;;;;;;;;;;;;;;;5090406;28;1948;-40
2023/02/21 11:50:21;;;;;;;;;;;;;;;;;;5090311;28;1819;-40
2023/02/21 11:52:52;;;;;;;;;;;;;;;;;;5090291;28;2133;-41
2023/02/21 11:55:22;;;;;;;;;;;;;;;;;;5090205;28;1678;-44
2023/02/21 11:58:00;;;;;;;;;;;;;;;;;;5090340;28;1733;-47
2023/02/21 12:00:33;;;;;;;;;;;;;;;;;;5090144;28;2173;-45
2023/02/21 12:03:23;;;;;;;;;;;;;;;;;;5089137;28;1975;-42
2023/02/21 12:05:59;;;;;;;;;;;;;;;;;;5090104;28;2221;-43
2023/02/21 12:08:27;;;;;;;;;;;;;;;;;;5090121;28;2003;-43
2023/02/21 12:11:26;;;;;;;;;;;;;;;;;;5089846;28;1991;-42
2023/02/21 12:13:56;;;;;;;;;;;;;;;;;;5056133;28;1849;-42
2023/02/21 12:16:39;;;;;;;;;;;;;;;;;;5089870;28;1970;-43
2023/02/21 12:19:15;;;;;;;;;;;;;;;;;;5090207;28;2034;-41
2023/02/21 12:21:51;;;;;;;;;;;;;;;;;;5089870;28;2032;-43
2023/02/21 12:24:34;;;;;;;;;;;;;;;;;;5090267;28;1649;-40
2023/02/21 12:27:10;;;;;;;;;;;;;;;;;;5089551;28;1450;-43
2023/02/21 12:29:57;;;;;;;;;;;;;;;;;;5093021;28;2056;-45
2023/02/21 12:32:31;;;;;;;;;;;;;;;;;;5093250;28;2106;-42
2023/02/21 12:35:09;;;;;;;;;;;;;;;;;;5093604;28;1373;-41
2023/02/21 12:37:56;;;;;;;;;;;;;;;;;;5093699;28;1724;-40
2023/02/21 12:41:01;;;;;;;;;;;;;;;;;;5093287;28;2199;-40
2023/02/21 12:43:38;;;;;;;;;;;;;;;;;;5030443;28;1913;-43
2023/02/21 12:46:14;;;;;;;;;;;;;;;;;;5030539;28;2088;-40
2023/02/21 12:48:50;;;;;;;;;;;;;;;;;;5068988;28;1753;-46
2023/02/21 12:51:20;;;;;;;;;;;;;;;;;;5092931;28;1991;-44
2023/02/21 12:53:56;;;;;;;;;;;;;;;;;;5075863;28;1728;-46
2023/02/21 12:56:26;;;;;;;;;;;;;;;;;;5093269;28;1811;-42
2023/02/21 12:58:57;;;;;;;;;;;;;;;;;;5092802;28;1662;-40
2023/02/21 13:01:27;;;;;;;;;;;;;;;;;;5092705;28;1939;-40
2023/02/21 13:04:02;;;;;;;;;;;;;;;;;;5092953;28;2097;-42
2023/02/21 13:06:35;;;;;;;;;;;;;;;;;;5074370;28;2201;-44
2023/02/21 13:09:02;;;;;;;;;;;;;;;;;;5072546;28;1594;-42
2023/02/21 13:11:29;;;;;;;;;;;;;;;;;;5072793;28;1947;-45
2023/02/21 13:13:57;;;;;;;;;;;;;;;;;;5073012;28;1718;-44
2023/02/21 13:16:25;;;;;;;;;;;;;;;;;;5072606;28;1585;-41
2023/02/21 13:19:00;;;;;;;;;;;;;;;;;;5067921;28;10363;-41
2023/02/21 13:21:41;;;;;;;;;;;;;;;;;;5072361;28;1960;-40
2023/02/21 13:27:27;;;;;;;;;;;;;;;;;;5072592;28;1475;-40
2023/02/21 13:30:11;;;;;;;;;;;;;;;;;;5071830;28;1720;-40
2023/02/21 13:32:39;;;;;;;;;;;;;;;;;;5071803;28;1968;-43
2023/02/21 13:35:08;;;;;;;;;;;;;;;;;;5072135;28;2017;-48
2023/02/21 13:37:43;;;;;;;;;;;;;;;;;;5072269;28;1852;-46
2023/02/21 13:40:22;;;;;;;;;;;;;;;;;;5071051;28;1652;-44
2023/02/21 13:43:00;;;;;;;;;;;;;;;;;;5072437;28;1905;-43
2023/02/21 13:45:27;;;;;;;;;;;;;;;;;;5071757;28;1996;-44
2023/02/21 13:47:58;;;;;;;;;;;;;;;;;;5071695;28;1771;-40
2023/02/21 13:50:33;;;;;;;;;;;;;;;;;;5071903;28;2040;-42
2023/02/21 13:53:13;;;;;;;;;;;;;;;;;;5072084;28;2071;-43
2023/02/21 13:56:00;;;;;;;;;;;;;;;;;;5071987;28;1880;-47
2023/02/21 13:58:47;;;;;;;;;;;;;;;;;;5071708;28;1705;-46
2023/02/21 14:01:14;;;;;;;;;;;;;;;;;;5072111;28;1713;-43
2023/02/21 14:03:41;;;;;;;;;;;;;;;;;;5071707;28;1833;-44
2023/02/21 14:06:08;;;;;;;;;;;;;;;;;;5086819;28;1910;-44
2023/02/21 14:08:40;;;;;;;;;;;;;;;;;;5091247;28;1716;-40
2023/02/21 14:11:09;;;;;;;;;;;;;;;;;;5091631;28;1972;-45
2023/02/21 14:13:39;;;;;;;;;;;;;;;;;;5091947;28;1956;-43
2023/02/21 14:16:06;;;;;;;;;;;;;;;;;;5081649;28;1853;-38
2023/02/21 14:18:39;;;;;;;;;;;;;;;;;;5071283;28;2011;-41
2023/02/21 14:21:14;;;;;;;;;;;;;;;;;;5071175;28;2186;-39
2023/02/21 14:23:47;;;;;;;;;;;;;;;;;;5071450;28;1481;-43
2023/02/21 14:26:32;;;;;;;;;;;;;;;;;;5071232;28;1866;-42
2023/02/21 14:29:11;;;;;;;;;;;;;;;;;;5071090;28;1553;-41
2023/02/21 14:31:50;;;;;;;;;;;;;;;;;;5070747;28;1990;-44
2023/02/21 14:34:33;;;;;;;;;;;;;;;;;;5071217;28;2100;-41
2023/02/21 14:37:05;;;;;;;;;;;;;;;;;;5071351;28;1654;-41
2023/02/21 14:39:35;;;;;;;;;;;;;;;;;;5070647;28;1818;-46
2023/02/21 14:42:23;;;;;;;;;;;;;;;;;;5070858;28;1623;-44
2023/02/21 14:45:08;;;;;;;;;;;;;;;;;;5061066;28;1466;-43
2023/02/21 14:47:47;;;;;;;;;;;;;;;;;;5070462;28;1715;-42
2023/02/21 14:50:18;;;;;;;;;;;;;;;;;;5070251;28;1534;-42
2023/02/21 14:52:54;;;;;;;;;;;;;;;;;;5071113;28;1903;-43
2023/02/21 14:55:39;;;;;;;;;;;;;;;;;;5071287;28;1835;-45
2023/02/21 14:58:06;;;;;;;;;;;;;;;;;;5071329;28;1857;-40
2023/02/21 15:00:45;;;;;;;;;;;;;;;;;;5070138;28;1455;-42
2023/02/21 15:03:27;;;;;;;;;;;;;;;;;;5071241;28;2146;-40
2023/02/21 15:06:02;;;;;;;;;;;;;;;;;;5070890;28;1392;-40
2023/02/21 15:08:38;;;;;;;;;;;;;;;;;;5070905;28;1627;-46
2023/02/21 15:11:13;;;;;;;;;;;;;;;;;;5070169;28;1439;-41
2023/02/21 15:13:41;;;;;;;;;;;;;;;;;;5070642;28;1909;-41
2023/02/21 15:16:10;;;;;;;;;;;;;;;;;;5071089;28;2071;-43
2023/02/21 15:18:55;;;;;;;;;;;;;;;;;;5070261;28;1643;-40
2023/02/21 15:21:22;;;;;;;;;;;;;;;;;;5070879;28;1377;-40
2023/02/21 15:24:11;;;;;;;;;;;;;;;;;;5070375;28;1935;-41
2023/02/21 15:26:39;;;;;;;;;;;;;;;;;;5069880;28;1551;-41
2023/02/21 15:29:11;;;;;;;;;;;;;;;;;;5070265;28;1652;-43
2023/02/21 15:31:43;;;;;;;;;;;;;;;;;;5085539;28;1464;-47
2023/02/21 15:34:19;;;;;;;;;;;;;;;;;;5069370;28;1796;-43
2023/02/21 15:36:48;;;;;;;;;;;;;;;;;;5070796;28;2061;-47
2023/02/21 15:39:22;;;;;;;;;;;;;;;;;;5070645;28;2103;-42
2023/02/21 15:41:52;;;;;;;;;;;;;;;;;;5070081;28;1637;-41
2023/02/21 15:44:24;;;;;;;;;;;;;;;;;;5070569;28;1678;-43
2023/02/21 15:46:59;;;;;;;;;;;;;;;;;;5052711;28;1460;-42
2023/02/21 15:49:27;;;;;;;;;;;;;;;;;;5070447;28;1576;-40
2023/02/21 15:51:54;;;;;;;;;;;;;;;;;;5068952;28;10146;-41
2023/02/21 15:54:24;;;;;;;;;;;;;;;;;;5052105;28;1801;-42
2023/02/21 15:57:02;;;;;;;;;;;;;;;;;;5070326;28;1596;-43
2023/02/21 15:59:30;;;;;;;;;;;;;;;;;;5069869;28;1802;-39
2023/02/21 16:02:19;;;;;;;;;;;;;;;;;;5069643;28;1778;-41
2023/02/21 16:04:47;;;;;;;;;;;;;;;;;;5077362;28;1455;-45
2023/02/21 16:07:25;;;;;;;;;;;;;;;;;;5094023;28;1709;-47
2023/02/21 16:10:00;;;;;;;;;;;;;;;;;;5094289;28;1589;-42
2023/02/21 16:12:29;;;;;;;;;;;;;;;;;;5075994;28;1902;-42
2023/02/21 16:14:58;;;;;;;;;;;;;;;;;;5093955;28;1537;-43
2023/02/21 16:17:27;;;;;;;;;;;;;;;;;;5093902;28;1280;-40
2023/02/21 16:19:59;;;;;;;;;;;;;;;;;;5093863;28;1844;-39
2023/02/21 16:22:29;;;;;;;;;;;;;;;;;;5093952;28;1272;-42
2023/02/21 16:25:11;;;;;;;;;;;;;;;;;;5093613;28;2141;-42
2023/02/21 16:27:39;;;;;;;;;;;;;;;;;;5093877;28;1431;-42
2023/02/21 16:30:11;;;;;;;;;;;;;;;;;;5078130;28;2068;-45
2023/02/21 16:32:39;;;;;;;;;;;;;;;;;;5073138;28;1903;-43
2023/02/21 16:35:11;;;;;;;;;;;;;;;;;;5073486;28;1825;-42
2023/02/21 16:37:38;;;;;;;;;;;;;;;;;;5073277;28;1478;-41
2023/02/21 16:40:13;;;;;;;;;;;;;;;;;;5073233;28;1919;-43
2023/02/21 16:42:40;;;;;;;;;;;;;;;;;;5073447;28;2193;-38
2023/02/21 16:45:07;;;;;;;;;;;;;;;;;;5072843;28;1525;-39
2023/02/21 16:47:34;;;;;;;;;;;;;;;;;;5091726;28;1742;-42
2023/02/21 16:50:03;;;;;;;;;;;;;;;;;;5093403;28;1884;-43
2023/02/21 16:52:30;;;;;;;;;;;;;;;;;;5093199;28;1965;-46
2023/02/21 16:54:58;;;;;;;;;;;;;;;;;;5093421;28;1959;-42
2023/02/21 16:57:26;;;;;;;;;;;;;;;;;;5092963;28;1881;-40
2023/02/21 16:59:53;;;;;;;;;;;;;;;;;;5093037;28;1471;-39
2023/02/21 17:02:23;;;;;;;;;;;;;;;;;;5093833;28;1726;-46
2023/02/21 17:04:50;;;;;;;;;;;;;;;;;;5089026;28;1846;-44
2023/02/21 17:07:19;;;;;;;;;;;;;;;;;;5054258;28;1768;-39
2023/02/21 17:09:46;;;;;;;;;;;;;;;;;;5072994;28;1571;-42
2023/02/21 17:12:13;;;;;;;;;;;;;;;;;;5072662;28;1967;-43
2023/02/21 17:14:41;;;;;;;;;;;;;;;;;;5072667;28;1999;-41
2023/02/21 17:17:08;;;;;;;;;;;;;;;;;;5073105;28;1374;-39
2023/02/21 17:19:35;;;;;;;;;;;;;;;;;;5072024;28;1757;-43
2023/02/21 17:22:02;;;;;;;;;;;;;;;;;;5072678;28;1776;-41
2023/02/21 17:24:30;;;;;;;;;;;;;;;;;;5054394;28;1764;-39
2023/02/21 17:26:57;;;;;;;;;;;;;;;;;;5072522;28;1603;-45
2023/02/21 17:29:27;;;;;;;;;;;;;;;;;;5072374;28;1687;-39
2023/02/21 17:31:54;;;;;;;;;;;;;;;;;;5072594;28;1850;-41
2023/02/21 17:34:21;;;;;;;;;;;;;;;;;;5072010;28;1898;-43
2023/02/21 17:36:49;;;;;;;;;;;;;;;;;;5072013;28;1870;-40
2023/02/21 17:39:17;;;;;;;;;;;;;;;;;;5072230;28;1522;-41
2023/02/21 17:41:48;;;;;;;;;;;;;;;;;;5072941;28;1640;-42
2023/02/21 17:44:16;;;;;;;;;;;;;;;;;;5072576;28;1331;-44
2023/02/21 17:46:51;;;;;;;;;;;;;;;;;;5071995;28;1397;-44
2023/02/21 17:49:20;;;;;;;;;;;;;;;;;;5072268;28;1873;-44
2023/02/21 17:51:48;;;;;;;;;;;;;;;;;;5072320;28;1500;-41
2023/02/21 17:54:16;;;;;;;;;;;;;;;;;;5071461;28;1975;-40
2023/02/21 17:56:43;;;;;;;;;;;;;;;;;;5072164;28;1906;-43
2023/02/21 17:59:11;;;;;;;;;;;;;;;;;;5071891;28;1897;-43
2023/02/21 18:01:40;;;;;;;;;;;;;;;;;;5071780;28;1350;-42
2023/02/21 18:04:08;;;;;;;;;;;;;;;;;;5071680;28;1506;-45
2023/02/21 18:06:35;;;;;;;;;;;;;;;;;;5090461;28;1770;-43
2023/02/21 18:09:04;;;;;;;;;;;;;;;;;;5092072;28;1239;-42
2023/02/21 18:11:34;;;;;;;;;;;;;;;;;;5092525;28;1996;-42
2023/02/21 18:14:01;;;;;;;;;;;;;;;;;;5092051;28;1908;-42
2023/02/21 18:16:29;;;;;;;;;;;;;;;;;;5092412;28;1785;-39
2023/02/21 18:18:56;;;;;;;;;;;;;;;;;;5092338;28;1641;-42
2023/02/21 18:21:25;;;;;;;;;;;;;;;;;;5092706;28;1330;-44
2023/02/21 18:23:53;;;;;;;;;;;;;;;;;;5092072;28;1866;-44
2023/02/21 18:26:20;;;;;;;;;;;;;;;;;;5091298;28;1266;-42
2023/02/21 18:28:47;;;;;;;;;;;;;;;;;;5092078;28;1647;-43
2023/02/21 18:31:16;;;;;;;;;;;;;;;;;;5091886;28;1855;-45
2023/02/21 18:33:44;;;;;;;;;;;;;;;;;;5091961;28;1983;-43
2023/02/21 18:36:11;;;;;;;;;;;;;;;;;;5091675;28;2161;-42
2023/02/21 18:38:39;;;;;;;;;;;;;;;;;;5073831;28;1389;-43
2023/02/21 18:41:13;;;;;;;;;;;;;;;;;;5091720;28;2259;-43
2023/02/21 18:43:42;;;;;;;;;;;;;;;;;;5091997;28;1793;-40
2023/02/21 18:46:11;;;;;;;;;;;;;;;;;;5073584;28;2350;-41
2023/02/21 18:48:40;;;;;;;;;;;;;;;;;;5091873;28;1739;-42
2023/02/21 18:51:09;;;;;;;;;;;;;;;;;;5091537;28;2118;-39
2023/02/21 18:53:36;;;;;;;;;;;;;;;;;;5091242;28;1969;-39
2023/02/21 18:56:07;;;;;;;;;;;;;;;;;;5091527;28;1898;-47
2023/02/21 18:58:34;;;;;;;;;;;;;;;;;;5091487;28;1722;-43
2023/02/21 19:01:01;;;;;;;;;;;;;;;;;;5091708;28;1310;-39
2023/02/21 19:03:29;;;;;;;;;;;;;;;;;;5091929;28;2207;-45
2023/02/21 19:05:56;;;;;;;;;;;;;;;;;;5077724;28;1954;-40
2023/02/21 19:08:23;;;;;;;;;;;;;;;;;;5071217;28;1604;-44
2023/02/21 19:10:51;;;;;;;;;;;;;;;;;;5071208;28;1529;-42
2023/02/21 19:13:18;;;;;;;;;;;;;;;;;;5070809;28;1911;-45
2023/02/21 19:15:45;;;;;;;;;;;;;;;;;;5070927;28;1587;-40
2023/02/21 19:18:12;;;;;;;;;;;;;;;;;;5071186;28;1417;-48
2023/02/21 19:20:42;;;;;;;;;;;;;;;;;;5070884;28;909;-44
2023/02/21 19:23:10;;;;;;;;;;;;;;;;;;5070895;28;1661;-43
2023/02/21 19:25:38;;;;;;;;;;;;;;;;;;5070887;28;2168;-47
2023/02/21 19:28:06;;;;;;;;;;;;;;;;;;5070990;28;2001;-41
2023/02/21 19:30:35;;;;;;;;;;;;;;;;;;5071089;28;1960;-46
2023/02/21 19:33:04;;;;;;;;;;;;;;;;;;5070696;28;1979;-41
2023/02/21 19:35:31;;;;;;;;;;;;;;;;;;5070811;28;1933;-45
2023/02/21 19:38:01;;;;;;;;;;;;;;;;;;5073581;28;1801;-44
2023/02/21 19:40:28;;;;;;;;;;;;;;;;;;5075124;28;1493;-43
2023/02/21 19:42:55;;;;;;;;;;;;;;;;;;5075138;28;1803;-43
2023/02/21 19:45:22;;;;;;;;;;;;;;;;;;5075188;28;1921;-41
2023/02/21 19:47:49;;;;;;;;;;;;;;;;;;5074788;28;1525;-41